sensor_id;sensor_type;location;lat;lon;timestamp;P1;durP1;ratioP1;P2;durP2;ratioP2
69565;SDS011;56777;55.930;37.524;2024-01-10T00:01:45;8.85;;;4.38;;
69565;SDS011;56777;55.930;37.524;2024-01-10T00:04:11;10.77;;;5.03;;
69565;SDS011;56777;55.930;37.524;2024-01-10T00:06:36;10.52;;;4.55;;
69565;SDS011;56777;55.930;37.524;2024-01-10T00:09:02;11.20;;;5.05;;
69565;SDS011;56777;55.930;37.524;2024-01-10T00:11:27;9.45;;;4.95;;
69565;SDS011;56777;55.930;37.524;2024-01-10T00:13:53;10.32;;;4.90;;
69565;SDS011;56777;55.930;37.524;2024-01-10T00:16:24;9.32;;;4.55;;
69565;SDS011;56777;55.930;37.524;2024-01-10T00:18:50;13.15;;;5.28;;
69565;SDS011;56777;55.930;37.524;2024-01-10T00:21:16;12.38;;;5.38;;
69565;SDS011;56777;55.930;37.524;2024-01-10T00:23:41;14.55;;;5.22;;
69565;SDS011;56777;55.930;37.524;2024-01-10T00:26:07;11.40;;;4.95;;
69565;SDS011;56777;55.930;37.524;2024-01-10T00:28:32;11.93;;;4.75;;
69565;SDS011;56777;55.930;37.524;2024-01-10T00:30:58;12.15;;;5.40;;
69565;SDS011;56777;55.930;37.524;2024-01-10T00:33:23;13.95;;;6.05;;
69565;SDS011;56777;55.930;37.524;2024-01-10T00:35:49;17.50;;;6.55;;
69565;SDS011;56777;55.930;37.524;2024-01-10T00:38:14;20.73;;;7.38;;
69565;SDS011;56777;55.930;37.524;2024-01-10T00:40:40;15.23;;;6.00;;
69565;SDS011;56777;55.930;37.524;2024-01-10T00:43:06;9.63;;;4.07;;
69565;SDS011;56777;55.930;37.524;2024-01-10T00:45:31;11.68;;;5.13;;
69565;SDS011;56777;55.930;37.524;2024-01-10T00:47:57;7.70;;;4.32;;
69565;SDS011;56777;55.930;37.524;2024-01-10T00:50:23;10.52;;;4.93;;
69565;SDS011;56777;55.930;37.524;2024-01-10T00:52:48;9.43;;;3.97;;
69565;SDS011;56777;55.930;37.524;2024-01-10T00:55:14;13.85;;;5.63;;
69565;SDS011;56777;55.930;37.524;2024-01-10T00:57:39;21.88;;;7.03;;
69565;SDS011;56777;55.930;37.524;2024-01-10T01:00:06;12.32;;;5.50;;
69565;SDS011;56777;55.930;37.524;2024-01-10T01:02:32;9.13;;;4.55;;
69565;SDS011;56777;55.930;37.524;2024-01-10T01:04:58;9.32;;;4.85;;
69565;SDS011;56777;55.930;37.524;2024-01-10T01:07:23;8.65;;;4.07;;
69565;SDS011;56777;55.930;37.524;2024-01-10T01:09:49;9.60;;;4.70;;
69565;SDS011;56777;55.930;37.524;2024-01-10T01:12:14;12.35;;;5.10;;
69565;SDS011;56777;55.930;37.524;2024-01-10T01:14:40;9.68;;;4.40;;
69565;SDS011;56777;55.930;37.524;2024-01-10T01:17:06;10.65;;;4.18;;
69565;SDS011;56777;55.930;37.524;2024-01-10T01:19:31;12.10;;;5.43;;
69565;SDS011;56777;55.930;37.524;2024-01-10T01:21:57;9.50;;;4.50;;
69565;SDS011;56777;55.930;37.524;2024-01-10T01:24:22;12.18;;;4.68;;
69565;SDS011;56777;55.930;37.524;2024-01-10T01:26:48;10.48;;;5.18;;
69565;SDS011;56777;55.930;37.524;2024-01-10T01:29:14;11.52;;;5.20;;
69565;SDS011;56777;55.930;37.524;2024-01-10T01:31:39;13.00;;;5.05;;
69565;SDS011;56777;55.930;37.524;2024-01-10T01:34:05;10.90;;;5.40;;
69565;SDS011;56777;55.930;37.524;2024-01-10T01:36:30;11.95;;;5.78;;
69565;SDS011;56777;55.930;37.524;2024-01-10T01:38:56;12.82;;;5.93;;
69565;SDS011;56777;55.930;37.524;2024-01-10T01:41:21;13.02;;;4.97;;
69565;SDS011;56777;55.930;37.524;2024-01-10T01:43:47;9.70;;;4.50;;
69565;SDS011;56777;55.930;37.524;2024-01-10T01:46:13;9.85;;;5.25;;
69565;SDS011;56777;55.930;37.524;2024-01-10T01:48:39;14.40;;;5.50;;
69565;SDS011;56777;55.930;37.524;2024-01-10T01:51:05;13.75;;;5.97;;
69565;SDS011;56777;55.930;37.524;2024-01-10T01:53:35;14.25;;;6.20;;
69565;SDS011;56777;55.930;37.524;2024-01-10T01:56:02;14.20;;;5.95;;
69565;SDS011;56777;55.930;37.524;2024-01-10T01:58:31;11.80;;;5.43;;
69565;SDS011;56777;55.930;37.524;2024-01-10T02:00:57;11.07;;;4.70;;
69565;SDS011;56777;55.930;37.524;2024-01-10T02:03:23;11.90;;;5.30;;
69565;SDS011;56777;55.930;37.524;2024-01-10T02:05:49;11.95;;;5.25;;
69565;SDS011;56777;55.930;37.524;2024-01-10T02:08:15;10.40;;;4.32;;
69565;SDS011;56777;55.930;37.524;2024-01-10T02:10:40;11.43;;;5.03;;
69565;SDS011;56777;55.930;37.524;2024-01-10T02:13:06;12.20;;;4.75;;
69565;SDS011;56777;55.930;37.524;2024-01-10T02:15:34;12.48;;;4.50;;
69565;SDS011;56777;55.930;37.524;2024-01-10T02:18:00;9.52;;;4.85;;
69565;SDS011;56777;55.930;37.524;2024-01-10T02:20:26;14.38;;;5.38;;
69565;SDS011;56777;55.930;37.524;2024-01-10T02:22:52;9.63;;;4.93;;
69565;SDS011;56777;55.930;37.524;2024-01-10T02:25:17;9.38;;;5.13;;
69565;SDS011;56777;55.930;37.524;2024-01-10T02:27:43;9.20;;;4.57;;
69565;SDS011;56777;55.930;37.524;2024-01-10T02:30:09;11.95;;;5.72;;
69565;SDS011;56777;55.930;37.524;2024-01-10T02:32:36;15.73;;;6.38;;
69565;SDS011;56777;55.930;37.524;2024-01-10T02:35:02;18.20;;;7.68;;
69565;SDS011;56777;55.930;37.524;2024-01-10T02:37:28;18.00;;;7.72;;
69565;SDS011;56777;55.930;37.524;2024-01-10T02:39:53;14.57;;;6.78;;
69565;SDS011;56777;55.930;37.524;2024-01-10T02:42:19;15.07;;;5.22;;
69565;SDS011;56777;55.930;37.524;2024-01-10T02:44:44;12.10;;;5.22;;
69565;SDS011;56777;55.930;37.524;2024-01-10T02:47:11;12.05;;;5.22;;
69565;SDS011;56777;55.930;37.524;2024-01-10T02:49:37;11.90;;;5.35;;
69565;SDS011;56777;55.930;37.524;2024-01-10T02:52:03;13.68;;;5.32;;
69565;SDS011;56777;55.930;37.524;2024-01-10T02:54:29;13.07;;;5.25;;
69565;SDS011;56777;55.930;37.524;2024-01-10T02:56:54;12.57;;;5.15;;
69565;SDS011;56777;55.930;37.524;2024-01-10T02:59:20;11.43;;;5.03;;
69565;SDS011;56777;55.930;37.524;2024-01-10T03:01:46;11.43;;;4.88;;
69565;SDS011;56777;55.930;37.524;2024-01-10T03:04:11;12.30;;;5.32;;
69565;SDS011;56777;55.930;37.524;2024-01-10T03:06:37;12.70;;;5.20;;
69565;SDS011;56777;55.930;37.524;2024-01-10T03:09:02;13.18;;;5.85;;
69565;SDS011;56777;55.930;37.524;2024-01-10T03:11:28;13.93;;;7.20;;
69565;SDS011;56777;55.930;37.524;2024-01-10T03:14:03;14.05;;;6.63;;
69565;SDS011;56777;55.930;37.524;2024-01-10T03:18:57;15.65;;;6.72;;
69565;SDS011;56777;55.930;37.524;2024-01-10T03:21:23;13.93;;;6.50;;
69565;SDS011;56777;55.930;37.524;2024-01-10T03:23:50;9.75;;;4.75;;
69565;SDS011;56777;55.930;37.524;2024-01-10T03:26:16;14.80;;;5.65;;
69565;SDS011;56777;55.930;37.524;2024-01-10T03:28:42;14.80;;;6.95;;
69565;SDS011;56777;55.930;37.524;2024-01-10T03:31:07;13.63;;;6.07;;
69565;SDS011;56777;55.930;37.524;2024-01-10T03:33:33;14.60;;;5.70;;
69565;SDS011;56777;55.930;37.524;2024-01-10T03:35:58;12.98;;;6.13;;
69565;SDS011;56777;55.930;37.524;2024-01-10T03:38:24;11.38;;;5.80;;
69565;SDS011;56777;55.930;37.524;2024-01-10T03:40:49;11.25;;;5.88;;
69565;SDS011;56777;55.930;37.524;2024-01-10T03:43:15;15.02;;;5.93;;
69565;SDS011;56777;55.930;37.524;2024-01-10T03:45:41;12.93;;;5.30;;
69565;SDS011;56777;55.930;37.524;2024-01-10T03:48:07;16.48;;;5.88;;
69565;SDS011;56777;55.930;37.524;2024-01-10T03:50:33;11.93;;;5.75;;
69565;SDS011;56777;55.930;37.524;2024-01-10T03:52:58;12.30;;;6.00;;
69565;SDS011;56777;55.930;37.524;2024-01-10T03:55:24;9.52;;;5.25;;
69565;SDS011;56777;55.930;37.524;2024-01-10T03:57:49;10.80;;;4.30;;
69565;SDS011;56777;55.930;37.524;2024-01-10T04:00:15;12.25;;;5.00;;
69565;SDS011;56777;55.930;37.524;2024-01-10T04:02:41;11.65;;;4.72;;
69565;SDS011;56777;55.930;37.524;2024-01-10T04:05:07;14.70;;;5.78;;
69565;SDS011;56777;55.930;37.524;2024-01-10T04:07:34;15.63;;;6.20;;
69565;SDS011;56777;55.930;37.524;2024-01-10T04:10:01;9.27;;;4.28;;
69565;SDS011;56777;55.930;37.524;2024-01-10T04:12:27;9.88;;;4.53;;
69565;SDS011;56777;55.930;37.524;2024-01-10T04:14:53;14.15;;;4.95;;
69565;SDS011;56777;55.930;37.524;2024-01-10T04:17:18;12.50;;;5.43;;
69565;SDS011;56777;55.930;37.524;2024-01-10T04:19:44;12.93;;;5.65;;
69565;SDS011;56777;55.930;37.524;2024-01-10T04:22:09;11.32;;;5.85;;
69565;SDS011;56777;55.930;37.524;2024-01-10T04:24:35;6.50;;;2.47;;
69565;SDS011;56777;55.930;37.524;2024-01-10T04:27:00;9.45;;;3.97;;
69565;SDS011;56777;55.930;37.524;2024-01-10T04:29:26;12.40;;;5.20;;
69565;SDS011;56777;55.930;37.524;2024-01-10T04:31:51;10.93;;;4.00;;
69565;SDS011;56777;55.930;37.524;2024-01-10T04:34:17;5.25;;;3.03;;
69565;SDS011;56777;55.930;37.524;2024-01-10T04:36:43;12.95;;;5.43;;
69565;SDS011;56777;55.930;37.524;2024-01-10T04:39:09;11.43;;;4.57;;
69565;SDS011;56777;55.930;37.524;2024-01-10T04:41:35;11.80;;;5.07;;
69565;SDS011;56777;55.930;37.524;2024-01-10T04:44:00;11.00;;;5.03;;
69565;SDS011;56777;55.930;37.524;2024-01-10T04:46:26;16.25;;;5.55;;
69565;SDS011;56777;55.930;37.524;2024-01-10T04:48:52;13.82;;;5.32;;
69565;SDS011;56777;55.930;37.524;2024-01-10T04:51:17;12.65;;;5.57;;
69565;SDS011;56777;55.930;37.524;2024-01-10T04:53:43;12.63;;;5.43;;
69565;SDS011;56777;55.930;37.524;2024-01-10T04:56:08;17.45;;;6.43;;
69565;SDS011;56777;55.930;37.524;2024-01-10T04:58:34;13.23;;;5.63;;
69565;SDS011;56777;55.930;37.524;2024-01-10T05:01:00;11.68;;;5.35;;
69565;SDS011;56777;55.930;37.524;2024-01-10T05:03:28;11.70;;;3.80;;
69565;SDS011;56777;55.930;37.524;2024-01-10T05:05:53;9.38;;;5.05;;
69565;SDS011;56777;55.930;37.524;2024-01-10T05:08:19;17.13;;;6.50;;
69565;SDS011;56777;55.930;37.524;2024-01-10T05:10:47;10.32;;;4.55;;
69565;SDS011;56777;55.930;37.524;2024-01-10T05:13:13;17.88;;;6.00;;
69565;SDS011;56777;55.930;37.524;2024-01-10T05:15:38;14.90;;;6.60;;
69565;SDS011;56777;55.930;37.524;2024-01-10T05:18:05;14.15;;;6.50;;
69565;SDS011;56777;55.930;37.524;2024-01-10T05:20:30;15.68;;;6.50;;
69565;SDS011;56777;55.930;37.524;2024-01-10T05:22:57;17.75;;;6.90;;
69565;SDS011;56777;55.930;37.524;2024-01-10T05:25:24;15.73;;;6.82;;
69565;SDS011;56777;55.930;37.524;2024-01-10T05:27:50;14.00;;;6.82;;
69565;SDS011;56777;55.930;37.524;2024-01-10T05:30:21;12.43;;;5.68;;
69565;SDS011;56777;55.930;37.524;2024-01-10T05:32:47;16.70;;;6.80;;
69565;SDS011;56777;55.930;37.524;2024-01-10T05:35:16;13.38;;;6.30;;
69565;SDS011;56777;55.930;37.524;2024-01-10T05:37:42;13.45;;;6.05;;
69565;SDS011;56777;55.930;37.524;2024-01-10T05:40:07;15.32;;;6.57;;
69565;SDS011;56777;55.930;37.524;2024-01-10T05:42:33;15.05;;;6.22;;
69565;SDS011;56777;55.930;37.524;2024-01-10T05:45:00;15.20;;;5.95;;
69565;SDS011;56777;55.930;37.524;2024-01-10T05:47:27;11.23;;;4.25;;
69565;SDS011;56777;55.930;37.524;2024-01-10T05:49:53;11.63;;;4.70;;
69565;SDS011;56777;55.930;37.524;2024-01-10T05:52:19;15.32;;;5.10;;
69565;SDS011;56777;55.930;37.524;2024-01-10T05:54:45;13.77;;;4.10;;
69565;SDS011;56777;55.930;37.524;2024-01-10T05:57:11;10.40;;;4.20;;
69565;SDS011;56777;55.930;37.524;2024-01-10T05:59:36;14.88;;;4.60;;
69565;SDS011;56777;55.930;37.524;2024-01-10T06:02:02;5.43;;;2.03;;
69565;SDS011;56777;55.930;37.524;2024-01-10T06:04:28;6.88;;;3.05;;
69565;SDS011;56777;55.930;37.524;2024-01-10T06:06:59;6.93;;;3.13;;
69565;SDS011;56777;55.930;37.524;2024-01-10T06:09:25;5.25;;;2.40;;
69565;SDS011;56777;55.930;37.524;2024-01-10T06:11:50;7.68;;;3.67;;
69565;SDS011;56777;55.930;37.524;2024-01-10T06:14:16;3.72;;;1.58;;
69565;SDS011;56777;55.930;37.524;2024-01-10T06:16:42;6.10;;;2.58;;
69565;SDS011;56777;55.930;37.524;2024-01-10T06:19:10;9.98;;;3.10;;
69565;SDS011;56777;55.930;37.524;2024-01-10T06:21:36;6.30;;;2.30;;
69565;SDS011;56777;55.930;37.524;2024-01-10T06:24:02;4.10;;;1.77;;
69565;SDS011;56777;55.930;37.524;2024-01-10T06:26:28;7.75;;;2.25;;
69565;SDS011;56777;55.930;37.524;2024-01-10T06:28:54;3.25;;;1.67;;
69565;SDS011;56777;55.930;37.524;2024-01-10T06:31:20;2.63;;;1.40;;
69565;SDS011;56777;55.930;37.524;2024-01-10T06:33:46;3.40;;;1.60;;
69565;SDS011;56777;55.930;37.524;2024-01-10T06:36:12;3.15;;;1.50;;
69565;SDS011;56777;55.930;37.524;2024-01-10T06:38:40;6.03;;;2.28;;
69565;SDS011;56777;55.930;37.524;2024-01-10T06:41:09;3.58;;;1.88;;
69565;SDS011;56777;55.930;37.524;2024-01-10T06:43:38;1.77;;;1.00;;
69565;SDS011;56777;55.930;37.524;2024-01-10T06:46:04;4.45;;;2.20;;
69565;SDS011;56777;55.930;37.524;2024-01-10T06:48:30;3.55;;;1.58;;
69565;SDS011;56777;55.930;37.524;2024-01-10T06:50:56;2.97;;;1.67;;
69565;SDS011;56777;55.930;37.524;2024-01-10T06:53:22;4.00;;;1.95;;
69565;SDS011;56777;55.930;37.524;2024-01-10T06:55:48;5.68;;;2.10;;
69565;SDS011;56777;55.930;37.524;2024-01-10T06:58:13;2.55;;;1.58;;
69565;SDS011;56777;55.930;37.524;2024-01-10T07:00:39;4.32;;;2.47;;
69565;SDS011;56777;55.930;37.524;2024-01-10T07:03:05;7.55;;;2.10;;
69565;SDS011;56777;55.930;37.524;2024-01-10T07:05:30;5.68;;;3.00;;
69565;SDS011;56777;55.930;37.524;2024-01-10T07:07:59;3.35;;;1.90;;
69565;SDS011;56777;55.930;37.524;2024-01-10T07:10:28;2.85;;;1.15;;
69565;SDS011;56777;55.930;37.524;2024-01-10T07:12:57;3.00;;;1.95;;
69565;SDS011;56777;55.930;37.524;2024-01-10T07:15:23;5.43;;;1.58;;
69565;SDS011;56777;55.930;37.524;2024-01-10T07:17:50;4.43;;;2.53;;
69565;SDS011;56777;55.930;37.524;2024-01-10T07:20:15;3.72;;;1.50;;
69565;SDS011;56777;55.930;37.524;2024-01-10T07:22:41;3.97;;;1.95;;
69565;SDS011;56777;55.930;37.524;2024-01-10T07:25:09;5.57;;;2.47;;
69565;SDS011;56777;55.930;37.524;2024-01-10T07:27:39;2.17;;;1.33;;
69565;SDS011;56777;55.930;37.524;2024-01-10T07:30:09;6.75;;;3.20;;
69565;SDS011;56777;55.930;37.524;2024-01-10T07:32:44;4.00;;;1.98;;
69565;SDS011;56777;55.930;37.524;2024-01-10T07:35:11;3.10;;;1.13;;
69565;SDS011;56777;55.930;37.524;2024-01-10T07:37:39;3.78;;;2.22;;
69565;SDS011;56777;55.930;37.524;2024-01-10T07:40:05;4.85;;;2.38;;
69565;SDS011;56777;55.930;37.524;2024-01-10T07:42:34;6.85;;;2.70;;
69565;SDS011;56777;55.930;37.524;2024-01-10T07:45:00;5.97;;;2.13;;
69565;SDS011;56777;55.930;37.524;2024-01-10T07:47:32;5.53;;;2.60;;
69565;SDS011;56777;55.930;37.524;2024-01-10T07:50:03;5.30;;;2.67;;
69565;SDS011;56777;55.930;37.524;2024-01-10T07:52:32;5.35;;;2.10;;
69565;SDS011;56777;55.930;37.524;2024-01-10T07:54:59;4.43;;;2.28;;
69565;SDS011;56777;55.930;37.524;2024-01-10T07:57:25;5.95;;;1.98;;
69565;SDS011;56777;55.930;37.524;2024-01-10T07:59:52;5.15;;;2.50;;
69565;SDS011;56777;55.930;37.524;2024-01-10T08:02:18;6.55;;;2.20;;
69565;SDS011;56777;55.930;37.524;2024-01-10T08:04:44;5.57;;;3.03;;
69565;SDS011;56777;55.930;37.524;2024-01-10T08:07:09;6.97;;;2.35;;
69565;SDS011;56777;55.930;37.524;2024-01-10T08:09:35;7.15;;;3.08;;
69565;SDS011;56777;55.930;37.524;2024-01-10T08:12:02;11.55;;;3.30;;
69565;SDS011;56777;55.930;37.524;2024-01-10T08:14:28;5.40;;;2.72;;
69565;SDS011;56777;55.930;37.524;2024-01-10T08:16:54;5.78;;;2.75;;
69565;SDS011;56777;55.930;37.524;2024-01-10T08:19:23;8.90;;;3.67;;
69565;SDS011;56777;55.930;37.524;2024-01-10T08:21:51;4.63;;;2.35;;
69565;SDS011;56777;55.930;37.524;2024-01-10T08:24:18;8.45;;;3.13;;
69565;SDS011;56777;55.930;37.524;2024-01-10T08:26:44;4.20;;;2.20;;
69565;SDS011;56777;55.930;37.524;2024-01-10T08:29:09;10.32;;;3.67;;
69565;SDS011;56777;55.930;37.524;2024-01-10T08:31:35;8.00;;;2.70;;
69565;SDS011;56777;55.930;37.524;2024-01-10T08:34:00;7.18;;;3.17;;
69565;SDS011;56777;55.930;37.524;2024-01-10T08:36:26;7.93;;;2.92;;
69565;SDS011;56777;55.930;37.524;2024-01-10T08:38:52;10.13;;;3.60;;
69565;SDS011;56777;55.930;37.524;2024-01-10T08:41:18;8.73;;;3.35;;
69565;SDS011;56777;55.930;37.524;2024-01-10T08:43:45;8.68;;;4.32;;
69565;SDS011;56777;55.930;37.524;2024-01-10T08:46:13;5.70;;;2.13;;
69565;SDS011;56777;55.930;37.524;2024-01-10T08:48:39;7.85;;;2.72;;
69565;SDS011;56777;55.930;37.524;2024-01-10T08:51:05;10.60;;;3.60;;
69565;SDS011;56777;55.930;37.524;2024-01-10T08:53:30;7.80;;;4.40;;
69565;SDS011;56777;55.930;37.524;2024-01-10T08:55:56;11.25;;;4.20;;
69565;SDS011;56777;55.930;37.524;2024-01-10T08:58:21;10.30;;;3.80;;
69565;SDS011;56777;55.930;37.524;2024-01-10T09:00:47;12.93;;;4.13;;
69565;SDS011;56777;55.930;37.524;2024-01-10T09:03:12;11.75;;;5.00;;
69565;SDS011;56777;55.930;37.524;2024-01-10T09:05:38;6.45;;;3.42;;
69565;SDS011;56777;55.930;37.524;2024-01-10T09:08:04;6.00;;;2.65;;
69565;SDS011;56777;55.930;37.524;2024-01-10T09:10:29;14.30;;;5.53;;
69565;SDS011;56777;55.930;37.524;2024-01-10T09:12:55;9.02;;;3.05;;
69565;SDS011;56777;55.930;37.524;2024-01-10T09:15:23;9.65;;;4.30;;
69565;SDS011;56777;55.930;37.524;2024-01-10T09:17:50;13.25;;;4.22;;
69565;SDS011;56777;55.930;37.524;2024-01-10T09:20:17;8.75;;;3.58;;
69565;SDS011;56777;55.930;37.524;2024-01-10T09:22:43;12.27;;;4.30;;
69565;SDS011;56777;55.930;37.524;2024-01-10T09:25:09;11.13;;;3.88;;
69565;SDS011;56777;55.930;37.524;2024-01-10T09:27:38;16.30;;;5.57;;
69565;SDS011;56777;55.930;37.524;2024-01-10T09:30:05;12.45;;;5.60;;
69565;SDS011;56777;55.930;37.524;2024-01-10T09:32:33;8.68;;;4.00;;
69565;SDS011;56777;55.930;37.524;2024-01-10T09:35:00;10.95;;;4.03;;
69565;SDS011;56777;55.930;37.524;2024-01-10T09:37:26;12.05;;;3.95;;
69565;SDS011;56777;55.930;37.524;2024-01-10T09:39:52;15.48;;;5.00;;
69565;SDS011;56777;55.930;37.524;2024-01-10T09:42:18;8.05;;;3.03;;
69565;SDS011;56777;55.930;37.524;2024-01-10T09:44:46;10.88;;;4.43;;
69565;SDS011;56777;55.930;37.524;2024-01-10T09:47:13;12.02;;;4.25;;
69565;SDS011;56777;55.930;37.524;2024-01-10T09:49:40;12.13;;;4.70;;
69565;SDS011;56777;55.930;37.524;2024-01-10T09:52:06;15.90;;;5.30;;
69565;SDS011;56777;55.930;37.524;2024-01-10T09:54:35;16.52;;;5.00;;
69565;SDS011;56777;55.930;37.524;2024-01-10T09:57:03;20.67;;;6.88;;
69565;SDS011;56777;55.930;37.524;2024-01-10T09:59:29;16.00;;;5.60;;
69565;SDS011;56777;55.930;37.524;2024-01-10T10:01:56;19.38;;;6.05;;
69565;SDS011;56777;55.930;37.524;2024-01-10T10:04:21;11.68;;;4.05;;
69565;SDS011;56777;55.930;37.524;2024-01-10T10:06:57;8.10;;;3.40;;
69565;SDS011;56777;55.930;37.524;2024-01-10T10:09:23;24.17;;;6.63;;
69565;SDS011;56777;55.930;37.524;2024-01-10T10:11:54;14.35;;;4.28;;
69565;SDS011;56777;55.930;37.524;2024-01-10T10:14:20;12.95;;;4.32;;
69565;SDS011;56777;55.930;37.524;2024-01-10T10:16:47;15.85;;;5.32;;
69565;SDS011;56777;55.930;37.524;2024-01-10T10:19:13;9.10;;;3.88;;
69565;SDS011;56777;55.930;37.524;2024-01-10T10:21:48;18.10;;;6.80;;
69565;SDS011;56777;55.930;37.524;2024-01-10T10:24:13;12.50;;;4.97;;
69565;SDS011;56777;55.930;37.524;2024-01-10T10:26:39;10.55;;;4.72;;
69565;SDS011;56777;55.930;37.524;2024-01-10T10:29:06;8.40;;;2.78;;
69565;SDS011;56777;55.930;37.524;2024-01-10T10:31:32;11.07;;;4.03;;
69565;SDS011;56777;55.930;37.524;2024-01-10T10:34:00;5.80;;;3.67;;
69565;SDS011;56777;55.930;37.524;2024-01-10T10:36:27;13.80;;;4.63;;
69565;SDS011;56777;55.930;37.524;2024-01-10T10:38:54;15.40;;;4.82;;
69565;SDS011;56777;55.930;37.524;2024-01-10T10:41:20;14.80;;;4.43;;
69565;SDS011;56777;55.930;37.524;2024-01-10T10:43:46;14.45;;;4.90;;
69565;SDS011;56777;55.930;37.524;2024-01-10T10:46:15;11.85;;;5.15;;
69565;SDS011;56777;55.930;37.524;2024-01-10T10:48:41;10.90;;;4.53;;
69565;SDS011;56777;55.930;37.524;2024-01-10T10:51:08;13.90;;;5.95;;
69565;SDS011;56777;55.930;37.524;2024-01-10T10:53:43;10.85;;;4.72;;
69565;SDS011;56777;55.930;37.524;2024-01-10T10:58:40;7.47;;;3.33;;
69565;SDS011;56777;55.930;37.524;2024-01-10T11:01:07;11.55;;;4.68;;
69565;SDS011;56777;55.930;37.524;2024-01-10T11:03:34;9.00;;;3.92;;
69565;SDS011;56777;55.930;37.524;2024-01-10T11:06:12;11.52;;;4.18;;
69565;SDS011;56777;55.930;37.524;2024-01-10T11:08:48;16.75;;;5.82;;
69565;SDS011;56777;55.930;37.524;2024-01-10T11:11:37;18.35;;;5.93;;
69565;SDS011;56777;55.930;37.524;2024-01-10T11:14:39;15.82;;;5.95;;
69565;SDS011;56777;55.930;37.524;2024-01-10T11:17:34;15.50;;;4.82;;
69565;SDS011;56777;55.930;37.524;2024-01-10T11:25:58;14.52;;;5.13;;
69565;SDS011;56777;55.930;37.524;2024-01-10T11:28:30;15.05;;;5.13;;
69565;SDS011;56777;55.930;37.524;2024-01-10T11:30:58;14.90;;;5.80;;
69565;SDS011;56777;55.930;37.524;2024-01-10T11:33:45;12.38;;;4.95;;
69565;SDS011;56777;55.930;37.524;2024-01-10T11:36:16;13.98;;;5.43;;
69565;SDS011;56777;55.930;37.524;2024-01-10T11:41:28;15.88;;;5.30;;
69565;SDS011;56777;55.930;37.524;2024-01-10T11:47:09;13.00;;;4.75;;
69565;SDS011;56777;55.930;37.524;2024-01-10T11:49:28;11.18;;;4.10;;
69565;SDS011;56777;55.930;37.524;2024-01-10T11:51:55;19.35;;;5.13;;
69565;SDS011;56777;55.930;37.524;2024-01-10T11:54:38;17.13;;;5.35;;
69565;SDS011;56777;55.930;37.524;2024-01-10T11:57:12;21.15;;;6.47;;
69565;SDS011;56777;55.930;37.524;2024-01-10T11:59:58;19.25;;;6.10;;
69565;SDS011;56777;55.930;37.524;2024-01-10T12:02:25;22.85;;;7.68;;
69565;SDS011;56777;55.930;37.524;2024-01-10T12:04:52;11.00;;;4.47;;
69565;SDS011;56777;55.930;37.524;2024-01-10T12:07:19;16.25;;;5.63;;
69565;SDS011;56777;55.930;37.524;2024-01-10T12:09:45;18.13;;;5.15;;
69565;SDS011;56777;55.930;37.524;2024-01-10T12:12:14;11.52;;;5.28;;
69565;SDS011;56777;55.930;37.524;2024-01-10T12:14:41;12.15;;;5.00;;
69565;SDS011;56777;55.930;37.524;2024-01-10T12:17:09;25.90;;;8.68;;
69565;SDS011;56777;55.930;37.524;2024-01-10T12:19:34;20.05;;;6.35;;
69565;SDS011;56777;55.930;37.524;2024-01-10T12:22:02;21.33;;;7.68;;
69565;SDS011;56777;55.930;37.524;2024-01-10T12:24:28;20.60;;;7.30;;
69565;SDS011;56777;55.930;37.524;2024-01-10T12:26:54;20.75;;;6.00;;
69565;SDS011;56777;55.930;37.524;2024-01-10T12:29:20;16.30;;;6.25;;
69565;SDS011;56777;55.930;37.524;2024-01-10T12:31:46;22.02;;;7.85;;
69565;SDS011;56777;55.930;37.524;2024-01-10T12:34:13;18.10;;;6.65;;
69565;SDS011;56777;55.930;37.524;2024-01-10T12:36:40;20.65;;;7.00;;
69565;SDS011;56777;55.930;37.524;2024-01-10T12:39:08;18.27;;;7.40;;
69565;SDS011;56777;55.930;37.524;2024-01-10T12:41:34;23.23;;;7.95;;
69565;SDS011;56777;55.930;37.524;2024-01-10T12:44:02;21.45;;;7.50;;
69565;SDS011;56777;55.930;37.524;2024-01-10T12:46:29;22.77;;;7.32;;
69565;SDS011;56777;55.930;37.524;2024-01-10T12:51:26;21.02;;;7.10;;
69565;SDS011;56777;55.930;37.524;2024-01-10T12:53:54;24.98;;;8.07;;
69565;SDS011;56777;55.930;37.524;2024-01-10T12:56:22;22.92;;;7.57;;
69565;SDS011;56777;55.930;37.524;2024-01-10T12:58:48;15.70;;;5.60;;
69565;SDS011;56777;55.930;37.524;2024-01-10T13:01:13;19.73;;;7.40;;
69565;SDS011;56777;55.930;37.524;2024-01-10T13:03:39;18.92;;;6.78;;
69565;SDS011;56777;55.930;37.524;2024-01-10T13:06:05;23.05;;;7.65;;
69565;SDS011;56777;55.930;37.524;2024-01-10T13:08:31;21.25;;;6.55;;
69565;SDS011;56777;55.930;37.524;2024-01-10T13:10:59;17.95;;;6.75;;
69565;SDS011;56777;55.930;37.524;2024-01-10T13:13:25;21.48;;;7.10;;
69565;SDS011;56777;55.930;37.524;2024-01-10T13:15:51;23.20;;;7.47;;
69565;SDS011;56777;55.930;37.524;2024-01-10T13:18:16;14.30;;;4.45;;
69565;SDS011;56777;55.930;37.524;2024-01-10T13:20:43;19.65;;;6.97;;
69565;SDS011;56777;55.930;37.524;2024-01-10T13:23:09;29.00;;;8.57;;
69565;SDS011;56777;55.930;37.524;2024-01-10T13:25:35;23.20;;;7.82;;
69565;SDS011;56777;55.930;37.524;2024-01-10T13:28:02;26.50;;;7.78;;
69565;SDS011;56777;55.930;37.524;2024-01-10T13:30:30;23.17;;;8.80;;
69565;SDS011;56777;55.930;37.524;2024-01-10T13:32:55;21.35;;;7.78;;
69565;SDS011;56777;55.930;37.524;2024-01-10T13:35:23;21.05;;;6.60;;
69565;SDS011;56777;55.930;37.524;2024-01-10T13:37:49;20.58;;;8.00;;
69565;SDS011;56777;55.930;37.524;2024-01-10T13:40:15;25.60;;;9.10;;
69565;SDS011;56777;55.930;37.524;2024-01-10T13:42:41;19.63;;;7.68;;
69565;SDS011;56777;55.930;37.524;2024-01-10T13:45:08;17.42;;;6.78;;
69565;SDS011;56777;55.930;37.524;2024-01-10T13:50:06;17.90;;;6.53;;
69565;SDS011;56777;55.930;37.524;2024-01-10T13:52:32;20.33;;;7.93;;
69565;SDS011;56777;55.930;37.524;2024-01-10T13:54:58;24.75;;;8.40;;
69565;SDS011;56777;55.930;37.524;2024-01-10T13:57:24;20.98;;;8.32;;
69565;SDS011;56777;55.930;37.524;2024-01-10T13:59:50;25.13;;;8.73;;
69565;SDS011;56777;55.930;37.524;2024-01-10T14:02:16;17.10;;;6.13;;
69565;SDS011;56777;55.930;37.524;2024-01-10T14:04:44;21.90;;;7.20;;
69565;SDS011;56777;55.930;37.524;2024-01-10T14:07:20;22.88;;;8.93;;
69565;SDS011;56777;55.930;37.524;2024-01-10T14:10:09;21.00;;;8.43;;
69565;SDS011;56777;55.930;37.524;2024-01-10T14:12:35;23.27;;;8.38;;
69565;SDS011;56777;55.930;37.524;2024-01-10T14:15:01;20.90;;;8.32;;
69565;SDS011;56777;55.930;37.524;2024-01-10T14:17:27;22.90;;;9.05;;
69565;SDS011;56777;55.930;37.524;2024-01-10T14:19:53;19.08;;;7.35;;
69565;SDS011;56777;55.930;37.524;2024-01-10T14:22:19;22.75;;;7.93;;
69565;SDS011;56777;55.930;37.524;2024-01-10T14:24:44;27.27;;;8.98;;
69565;SDS011;56777;55.930;37.524;2024-01-10T14:27:10;19.65;;;7.93;;
69565;SDS011;56777;55.930;37.524;2024-01-10T14:29:35;23.70;;;8.63;;
69565;SDS011;56777;55.930;37.524;2024-01-10T14:32:01;22.35;;;8.77;;
69565;SDS011;56777;55.930;37.524;2024-01-10T14:34:28;25.20;;;8.40;;
69565;SDS011;56777;55.930;37.524;2024-01-10T14:36:54;22.08;;;9.05;;
69565;SDS011;56777;55.930;37.524;2024-01-10T14:39:20;26.58;;;9.90;;
69565;SDS011;56777;55.930;37.524;2024-01-10T14:41:46;23.92;;;7.80;;
69565;SDS011;56777;55.930;37.524;2024-01-10T14:44:11;23.10;;;8.93;;
69565;SDS011;56777;55.930;37.524;2024-01-10T14:46:37;27.40;;;9.88;;